Time;durP1;ratioP1;P1;durP2;ratioP2;P2;SDS_P1;SDS_P2;PMS_P1;PMS_P2;Temp;Humidity;BMP_temperature;BMP_pressure;BME280_temperature;BME280_humidity;BME280_pressure;Samples;Min_cycle;Max_cycle;Signal;HPM_P1;HPM_P2
2023/12/12 00:00:34;;;;;;;5.57;2.47;;;;;;;8.31;100.00;99108.25;4974699;28;20081;-75
2023/12/12 00:03:00;;;;;;;5.45;2.22;;;;;;;8.36;100.00;99113.19;4974793;28;20029;-75
2023/12/12 00:05:25;;;;;;;5.55;1.92;;;;;;;8.23;100.00;99110.75;4974618;28;20379;-74
2023/12/12 00:07:51;;;;;;;4.07;1.98;;;;;;;8.25;100.00;99113.09;4974636;28;20468;-75
2023/12/12 00:10:16;;;;;;;3.78;2.03;;;;;;;8.23;100.00;99124.19;4974467;28;20035;-76
2023/12/12 00:12:42;;;;;;;5.40;1.77;;;;;;;8.14;100.00;99124.34;4972879;28;20058;-74
2023/12/12 00:15:09;;;;;;;2.50;1.80;;;;;;;8.15;100.00;99132.41;4972521;28;20039;-73
2023/12/12 00:17:34;;;;;;;3.60;1.80;;;;;;;8.17;100.00;99129.84;4973311;28;20110;-75
2023/12/12 00:20:00;;;;;;;2.72;1.80;;;;;;;8.17;100.00;99131.91;4972988;28;20110;-75
2023/12/12 00:22:31;;;;;;;4.93;1.73;;;;;;;8.23;100.00;99127.81;4973203;28;20384;-75
2023/12/12 00:25:01;;;;;;;5.70;1.55;;;;;;;8.32;100.00;99143.94;4987870;28;20026;-74
2023/12/12 00:27:27;;;;;;;3.72;1.55;;;;;;;8.29;100.00;99151.41;4973004;28;20388;-74
2023/12/12 00:29:52;;;;;;;3.65;1.40;;;;;;;8.29;100.00;99153.50;4973152;28;20535;-74
2023/12/12 00:32:19;;;;;;;4.03;1.77;;;;;;;8.30;100.00;99155.84;4974916;28;20050;-74
2023/12/12 00:34:45;;;;;;;2.53;1.30;;;;;;;8.34;100.00;99164.91;4978310;28;20053;-74
2023/12/12 00:37:16;;;;;;;2.72;1.60;;;;;;;8.41;100.00;99171.44;4975756;28;20085;-74
2023/12/12 00:39:42;;;;;;;4.45;1.60;;;;;;;8.47;100.00;99164.47;4976902;28;20030;-74
2023/12/12 00:42:07;;;;;;;2.03;1.50;;;;;;;8.43;100.00;99174.53;4977151;28;20038;-73
2023/12/12 00:44:35;;;;;;;4.28;1.80;;;;;;;8.51;100.00;99175.66;4977297;28;20030;-73
2023/12/12 00:47:00;;;;;;;3.40;1.65;;;;;;;8.39;100.00;99175.56;4975697;28;20425;-73
2023/12/12 00:49:26;;;;;;;1.92;1.50;;;;;;;8.36;100.00;99176.56;4976701;28;20505;-73
2023/12/12 00:51:51;;;;;;;5.35;2.05;;;;;;;8.41;100.00;99183.59;4976452;28;20031;-73
2023/12/12 00:54:17;;;;;;;4.72;1.30;;;;;;;8.41;100.00;99177.88;4977599;28;20050;-74
2023/12/12 00:56:44;;;;;;;2.22;1.60;;;;;;;8.45;100.00;99177.69;4976691;28;20105;-75
2023/12/12 00:59:09;;;;;;;2.58;1.98;;;;;;;8.48;100.00;99188.03;4978636;28;20035;-74
2023/12/12 01:01:36;;;;;;;2.75;1.70;;;;;;;8.45;100.00;99186.22;4978512;28;20037;-74
2023/12/12 01:04:01;;;;;;;2.83;1.55;;;;;;;8.47;100.00;99195.81;4975822;28;20047;-75
2023/12/12 01:06:28;;;;;;;4.35;1.83;;;;;;;8.45;100.00;99192.69;4977717;28;20033;-74
2023/12/12 01:08:54;;;;;;;3.33;1.50;;;;;;;8.42;100.00;99178.66;4977423;28;20023;-74
2023/12/12 01:11:20;;;;;;;2.95;1.27;;;;;;;8.37;100.00;99188.72;4977521;28;20038;-75
2023/12/12 01:13:48;;;;;;;3.63;1.20;;;;;;;8.34;100.00;99196.22;4976351;28;20029;-75
2023/12/12 01:16:14;;;;;;;3.45;1.38;;;;;;;8.33;100.00;99202.41;4976091;28;20133;-75
2023/12/12 01:18:41;;;;;;;7.47;1.67;;;;;;;8.31;100.00;99205.00;4977549;28;20027;-75
2023/12/12 01:21:07;;;;;;;2.20;1.48;;;;;;;8.32;100.00;99201.63;4977488;28;20030;-74
2023/12/12 01:23:51;;;;;;;3.40;1.40;;;;;;;8.32;100.00;99209.38;4977286;28;20054;-75
2023/12/12 01:26:18;;;;;;;3.97;1.58;;;;;;;8.38;100.00;99208.16;4976145;28;20054;-73
2023/12/12 01:28:44;;;;;;;2.70;1.40;;;;;;;8.38;100.00;99213.84;4976327;28;20041;-74
2023/12/12 01:31:10;;;;;;;2.47;1.20;;;;;;;8.28;100.00;99215.31;4977526;28;20038;-73
2023/12/12 01:33:37;;;;;;;4.45;1.65;;;;;;;8.23;100.00;99215.25;4977239;28;20023;-75
2023/12/12 01:36:04;;;;;;;3.33;1.45;;;;;;;8.29;100.00;99219.72;4977053;28;20034;-74
2023/12/12 01:38:34;;;;;;;1.35;1.25;;;;;;;8.33;100.00;99225.19;4977355;28;20535;-72
2023/12/12 01:41:00;;;;;;;2.97;1.27;;;;;;;8.34;100.00;99226.75;4975995;28;20125;-75
2023/12/12 01:43:35;;;;;;;1.48;1.25;;;;;;;8.34;100.00;99233.22;4959418;28;20026;-74
2023/12/12 01:46:03;;;;;;;0.90;0.90;;;;;;;8.34;100.00;99233.22;4976905;28;20057;-74
2023/12/12 01:48:30;;;;;;;2.08;1.15;;;;;;;8.36;100.00;99227.78;4975553;28;20380;-73
2023/12/12 01:50:57;;;;;;;5.40;1.23;;;;;;;8.36;100.00;99232.72;4976860;28;20105;-74
2023/12/12 01:53:33;;;;;;;1.23;1.00;;;;;;;8.44;100.00;99241.59;4959478;28;20039;-75
2023/12/12 01:56:03;;;;;;;2.17;1.10;;;;;;;8.45;100.00;99238.25;4975439;28;20035;-74
2023/12/12 01:58:29;;;;;;;2.70;1.00;;;;;;;8.31;100.00;99242.75;4975477;28;20035;-75
2023/12/12 02:00:55;;;;;;;1.23;0.90;;;;;;;8.15;100.00;99246.22;4975347;28;20380;-73
2023/12/12 02:03:23;;;;;;;4.10;1.17;;;;;;;8.07;100.00;99253.63;4976486;28;20035;-75
2023/12/12 02:05:48;;;;;;;1.92;1.48;;;;;;;7.97;100.00;99249.38;4975528;28;20027;-74
2023/12/12 02:08:16;;;;;;;3.03;1.08;;;;;;;7.75;100.00;99252.75;4974565;28;20361;-74
2023/12/12 02:10:42;;;;;;;2.38;1.10;;;;;;;7.78;100.00;99256.66;4973020;28;20030;-74
2023/12/12 02:13:07;;;;;;;2.50;1.20;;;;;;;7.75;100.00;99252.75;4973084;28;20027;-74
2023/12/12 02:15:33;;;;;;;0.98;0.88;;;;;;;7.80;100.00;99256.94;4974123;28;20043;-76
2023/12/12 02:17:58;;;;;;;1.08;0.90;;;;;;;7.86;100.00;99269.97;4975182;28;20034;-74
2023/12/12 02:20:34;;;;;;;1.38;0.82;;;;;;;7.93;100.00;99243.13;4973694;28;20057;-75
2023/12/12 02:23:00;;;;;;;1.77;0.90;;;;;;;7.90;100.00;99259.16;4974927;28;20113;-73
2023/12/12 02:25:26;;;;;;;2.08;0.95;;;;;;;8.00;100.00;99270.34;4974774;28;20026;-73
2023/12/12 02:27:52;;;;;;;1.00;0.70;;;;;;;8.09;100.00;99270.19;4975212;28;20038;-74
2023/12/12 02:30:21;;;;;;;1.77;0.98;;;;;;;8.09;100.00;99270.97;4974747;28;20031;-76
2023/12/12 02:32:46;;;;;;;1.70;0.90;;;;;;;8.21;100.00;99266.22;4974788;28;20027;-73
2023/12/12 02:35:11;;;;;;;2.85;1.20;;;;;;;8.20;100.00;99278.88;4973572;28;20030;-74
2023/12/12 02:37:37;;;;;;;2.50;1.13;;;;;;;8.22;100.00;99262.84;4989673;28;20436;-75
2023/12/12 02:40:04;;;;;;;2.17;0.80;;;;;;;8.29;100.00;99275.88;4975201;28;20026;-74
2023/12/12 02:42:29;;;;;;;2.75;1.00;;;;;;;8.29;100.00;99279.50;4975743;28;20460;-74
2023/12/12 02:44:57;;;;;;;4.35;1.00;;;;;;;8.29;100.00;99275.88;4975554;28;20065;-75
2023/12/12 02:47:24;;;;;;;6.20;1.33;;;;;;;8.31;100.00;99293.22;4975711;28;20031;-74
2023/12/12 02:49:50;;;;;;;3.42;0.77;;;;;;;8.31;100.00;99285.44;4975471;28;20039;-74
2023/12/12 02:52:16;;;;;;;2.45;1.00;;;;;;;8.26;100.00;99291.88;4975692;28;20026;-76
2023/12/12 02:54:42;;;;;;;1.25;0.98;;;;;;;8.25;100.00;99286.69;4974923;28;20145;-73
2023/12/12 02:57:07;;;;;;;1.42;1.00;;;;;;;8.15;100.00;99299.50;4974317;28;20125;-74
2023/12/12 02:59:34;;;;;;;2.90;0.90;;;;;;;8.11;100.00;99307.47;4975413;28;20034;-75
2023/12/12 03:01:59;;;;;;;1.42;1.00;;;;;;;8.19;100.00;99298.00;4975561;28;20027;-74
2023/12/12 03:04:26;;;;;;;2.35;1.10;;;;;;;8.25;100.00;99312.31;4974007;28;20049;-73
2023/12/12 03:06:52;;;;;;;3.53;1.35;;;;;;;8.24;100.00;99313.59;4975240;28;20510;-74
2023/12/12 03:09:18;;;;;;;4.72;1.10;;;;;;;8.27;100.00;99313.34;4974067;28;20126;-73
2023/12/12 03:11:45;;;;;;;1.52;0.90;;;;;;;8.33;100.00;99314.19;4975289;28;20035;-74
2023/12/12 03:14:10;;;;;;;1.38;0.85;;;;;;;8.29;100.00;99319.34;4957789;28;20035;-75
2023/12/12 03:16:37;;;;;;;6.25;1.17;;;;;;;8.32;100.00;99318.31;4974907;28;20058;-75
2023/12/12 03:19:04;;;;;;;1.63;1.00;;;;;;;8.36;100.00;99326.66;4975310;28;20039;-74
2023/12/12 03:21:30;;;;;;;2.55;1.08;;;;;;;8.37;100.00;99331.84;4974992;28;20030;-73
2023/12/12 03:23:56;;;;;;;3.75;0.95;;;;;;;8.39;100.00;99343.50;4973578;28;20033;-74
2023/12/12 03:26:21;;;;;;;2.28;1.63;;;;;;;8.39;100.00;99337.03;4974823;28;20061;-74
2023/12/12 03:28:48;;;;;;;1.90;0.82;;;;;;;8.40;100.00;99352.84;4974997;28;20077;-74
2023/12/12 03:31:13;;;;;;;4.20;1.30;;;;;;;8.46;100.00;99356.50;4973666;28;20035;-74
2023/12/12 03:33:40;;;;;;;1.35;0.82;;;;;;;8.49;100.00;99343.34;4973491;28;20436;-74
2023/12/12 03:36:09;;;;;;;1.83;1.00;;;;;;;8.44;100.00;99347.69;4973623;28;20170;-74
2023/12/12 03:38:36;;;;;;;3.33;1.00;;;;;;;8.32;100.00;99354.53;4973631;28;20039;-74
2023/12/12 03:41:01;;;;;;;2.15;1.20;;;;;;;8.38;100.00;99356.19;4974654;28;20041;-74
2023/12/12 03:43:28;;;;;;;2.05;0.90;;;;;;;8.41;100.00;99351.53;4974735;28;20105;-74
2023/12/12 03:45:54;;;;;;;2.10;1.20;;;;;;;8.44;100.00;99355.44;4974751;28;20031;-77
2023/12/12 03:48:21;;;;;;;2.10;1.00;;;;;;;8.47;100.00;99346.69;4974727;28;20065;-74
2023/12/12 03:50:49;;;;;;;2.08;1.00;;;;;;;8.44;100.00;99350.53;4974547;28;20034;-74
2023/12/12 03:53:15;;;;;;;0.80;0.80;;;;;;;8.42;100.00;99355.94;4974520;28;20058;-75
2023/12/12 03:55:41;;;;;;;2.47;1.30;;;;;;;8.34;100.00;99355.63;4974378;28;20039;-74
2023/12/12 03:58:06;;;;;;;2.70;0.88;;;;;;;8.35;100.00;99362.09;4974487;28;20566;-74
2023/12/12 04:00:32;;;;;;;2.15;1.00;;;;;;;8.35;100.00;99365.72;4973374;28;20125;-74
2023/12/12 04:02:59;;;;;;;2.65;1.10;;;;;;;8.27;100.00;99369.50;4974778;28;20042;-74
2023/12/12 04:05:24;;;;;;;2.85;0.95;;;;;;;8.27;100.00;99364.59;4974265;28;20054;-73
2023/12/12 04:07:51;;;;;;;1.58;0.90;;;;;;;8.28;100.00;99369.00;4956968;28;20077;-76
2023/12/12 04:10:16;;;;;;;2.90;0.80;;;;;;;8.23;100.00;99374.63;4973047;28;20027;-73
2023/12/12 04:12:41;;;;;;;1.70;0.80;;;;;;;8.22;100.00;99373.06;4974366;28;20034;-75
2023/12/12 04:15:08;;;;;;;3.05;1.10;;;;;;;8.24;100.00;99367.66;4972784;28;20499;-73
2023/12/12 04:17:34;;;;;;;1.35;0.80;;;;;;;8.25;100.00;99377.75;4974200;28;20026;-75
2023/12/12 04:20:00;;;;;;;2.50;0.90;;;;;;;8.19;100.00;99363.47;4974486;28;20134;-74
2023/12/12 04:22:26;;;;;;;0.80;0.80;;;;;;;8.21;100.00;99382.91;4974601;28;20472;-74
2023/12/12 04:24:52;;;;;;;1.90;1.02;;;;;;;8.18;100.00;99378.19;4973988;28;20033;-74
2023/12/12 04:27:18;;;;;;;1.05;1.02;;;;;;;8.12;100.00;99377.28;4956823;28;20472;-74
2023/12/12 04:29:44;;;;;;;2.58;1.35;;;;;;;8.09;100.00;99396.16;4973191;28;20027;-74
2023/12/12 04:32:10;;;;;;;2.13;1.00;;;;;;;8.04;100.00;99388.34;4974916;28;20019;-74
2023/12/12 04:34:36;;;;;;;2.40;1.27;;;;;;;8.00;100.00;99399.16;4973122;28;20059;-75
2023/12/12 04:37:01;;;;;;;3.20;1.20;;;;;;;7.91;100.00;99397.25;4974192;28;20109;-73
2023/12/12 04:39:30;;;;;;;2.08;1.23;;;;;;;7.87;100.00;99398.69;4974084;28;20400;-74
2023/12/12 04:41:56;;;;;;;3.60;1.52;;;;;;;7.93;100.00;99402.41;4974962;28;20499;-74
2023/12/12 04:44:23;;;;;;;4.03;1.42;;;;;;;7.87;100.00;99405.19;4974092;28;20085;-75
2023/12/12 04:46:48;;;;;;;2.67;1.95;;;;;;;7.81;100.00;99409.25;4974125;28;20105;-73
2023/12/12 04:49:15;;;;;;;4.85;1.83;;;;;;;7.76;100.00;99415.63;4973067;28;20066;-76
2023/12/12 04:51:41;;;;;;;3.10;1.45;;;;;;;7.73;100.00;99413.75;4974067;28;20069;-72
2023/12/12 04:54:07;;;;;;;3.50;1.67;;;;;;;7.60;100.00;99408.41;4973786;28;20022;-74
2023/12/12 04:56:34;;;;;;;3.20;1.73;;;;;;;7.67;100.00;99422.22;4972343;28;20050;-73
2023/12/12 04:59:01;;;;;;;4.13;2.17;;;;;;;7.74;100.00;99418.19;4973934;28;20038;-74
2023/12/12 05:01:27;;;;;;;4.38;1.90;;;;;;;7.59;100.00;99429.59;4972710;28;20023;-73
2023/12/12 05:03:55;;;;;;;4.80;2.03;;;;;;;7.57;100.00;99423.59;4972398;28;20465;-74
2023/12/12 05:06:20;;;;;;;3.78;2.10;;;;;;;7.63;100.00;99424.47;4940321;28;20039;-74
2023/12/12 05:08:49;;;;;;;3.03;2.15;;;;;;;7.56;100.00;99416.38;4972678;28;20073;-74
2023/12/12 05:11:15;;;;;;;5.97;2.00;;;;;;;7.54;100.00;99422.53;4973331;28;20023;-75
2023/12/12 05:13:41;;;;;;;2.35;1.55;;;;;;;7.55;100.00;99414.81;4973624;28;20491;-74
2023/12/12 05:16:15;;;;;;;6.20;2.50;;;;;;;7.58;100.00;99413.81;4973933;28;20078;-74
2023/12/12 05:18:41;;;;;;;3.00;2.50;;;;;;;7.52;100.00;99425.09;4976372;28;20030;-74
2023/12/12 05:21:07;;;;;;;5.75;2.30;;;;;;;7.65;100.00;99419.09;4977137;28;20022;-75
2023/12/12 05:23:32;;;;;;;4.13;2.10;;;;;;;7.65;100.00;99419.09;4979723;28;20431;-75
2023/12/12 05:25:59;;;;;;;5.05;2.28;;;;;;;7.69;100.00;99418.88;4996969;28;20030;-75
2023/12/12 05:28:24;;;;;;;3.30;2.28;;;;;;;7.65;100.00;99424.00;5005273;28;20064;-75
2023/12/12 05:30:51;;;;;;;3.78;2.38;;;;;;;7.61;100.00;99432.75;5003488;28;20464;-75
2023/12/12 05:33:16;;;;;;;6.07;3.33;;;;;;;7.53;100.00;99446.56;4975705;28;20128;-75
2023/12/12 05:35:42;;;;;;;4.22;2.75;;;;;;;7.40;100.00;99445.31;4977215;28;20059;-73
2023/12/12 05:38:08;;;;;;;4.13;3.00;;;;;;;7.45;100.00;99453.94;4976934;28;20114;-75
2023/12/12 05:40:33;;;;;;;6.68;3.30;;;;;;;7.45;100.00;99456.78;4977075;28;20126;-74
2023/12/12 05:42:59;;;;;;;5.20;3.13;;;;;;;7.54;100.00;99456.66;4975498;28;20030;-75
2023/12/12 05:45:25;;;;;;;4.40;3.00;;;;;;;7.47;100.00;99465.56;4976597;28;20462;-75
2023/12/12 05:47:51;;;;;;;8.95;3.72;;;;;;;7.43;100.00;99464.22;4975338;28;20034;-74
2023/12/12 05:50:16;;;;;;;8.82;3.45;;;;;;;7.38;100.00;99471.38;4976554;28;20381;-73
2023/12/12 05:52:42;;;;;;;7.55;3.67;;;;;;;7.37;100.00;99477.56;4975622;28;20137;-74
2023/12/12 05:55:08;;;;;;;8.02;3.72;;;;;;;7.33;100.00;99469.22;4976617;28;20022;-72
2023/12/12 05:57:35;;;;;;;5.25;3.45;;;;;;;7.28;100.00;99474.81;4996001;28;20053;-74
2023/12/12 06:00:05;;;;;;;6.18;3.42;;;;;;;7.16;100.00;99479.53;4994663;28;20034;-75
2023/12/12 06:02:31;;;;;;;4.90;3.50;;;;;;;7.15;100.00;99483.63;4979749;28;20161;-75
2023/12/12 06:04:57;;;;;;;7.13;3.60;;;;;;;7.13;100.00;99491.84;4976658;28;20119;-74
2023/12/12 06:07:24;;;;;;;4.82;3.38;;;;;;;7.10;100.00;99501.38;4977096;28;20030;-76
2023/12/12 06:09:49;;;;;;;5.13;3.45;;;;;;;6.96;100.00;99500.09;4976887;28;20054;-74
2023/12/12 06:12:17;;;;;;;5.53;3.80;;;;;;;6.92;100.00;99501.56;4976962;28;20468;-77
2023/12/12 06:14:46;;;;;;;8.30;3.83;;;;;;;6.83;100.00;99507.31;5005359;28;20032;-74
2023/12/12 06:17:12;;;;;;;5.75;4.82;;;;;;;6.73;100.00;99503.00;5016028;28;20439;-74
2023/12/12 06:19:38;;;;;;;7.25;4.78;;;;;;;6.70;100.00;99510.41;5015376;28;20151;-74
2023/12/12 06:22:06;;;;;;;8.65;4.40;;;;;;;6.65;100.00;99511.88;5015554;28;20025;-78
2023/12/12 06:24:32;;;;;;;10.45;5.18;;;;;;;6.65;100.00;99520.38;5015298;28;20036;-76
2023/12/12 06:26:58;;;;;;;12.27;4.90;;;;;;;6.74;100.00;99524.41;5015484;28;20029;-76
2023/12/12 06:29:25;;;;;;;11.65;4.90;;;;;;;6.82;100.00;99526.41;5014438;28;20439;-77
2023/12/12 06:31:51;;;;;;;7.82;4.95;;;;;;;6.92;100.00;99533.59;5014648;28;20140;-76
2023/12/12 06:34:18;;;;;;;9.40;5.30;;;;;;;7.00;100.00;99543.28;5008926;28;20037;-75
2023/12/12 06:36:43;;;;;;;5.78;4.10;;;;;;;7.06;100.00;99546.22;5010478;28;20046;-77
2023/12/12 06:39:10;;;;;;;16.60;4.57;;;;;;;7.14;100.00;99550.25;4996152;28;20034;-76
2023/12/12 06:41:41;;;;;;;10.10;4.82;;;;;;;7.17;100.00;99552.13;4995984;28;20026;-76
2023/12/12 06:44:08;;;;;;;5.57;3.75;;;;;;;7.25;100.00;99556.16;4995317;28;20050;-77
2023/12/12 06:46:36;;;;;;;5.45;3.85;;;;;;;7.31;100.00;99559.88;5007899;28;20038;-78
2023/12/12 06:49:05;;;;;;;6.22;3.90;;;;;;;7.37;100.00;99565.66;4975988;28;20130;-78
2023/12/12 06:51:52;;;;;;;5.00;3.47;;;;;;;7.41;100.00;99558.53;4976827;28;20130;-77
2023/12/12 06:54:17;;;;;;;6.78;3.90;;;;;;;7.45;100.00;99555.47;4995247;28;20044;-78
2023/12/12 06:56:43;;;;;;;8.77;4.43;;;;;;;7.45;100.00;99555.47;4995469;28;20531;-78
2023/12/12 06:59:10;;;;;;;6.90;3.75;;;;;;;7.46;100.00;99555.00;4995692;28;20080;-79
2023/12/12 07:01:35;;;;;;;9.68;5.63;;;;;;;7.54;100.00;99558.22;4995835;28;20030;-78
2023/12/12 07:04:01;;;;;;;9.05;4.55;;;;;;;7.61;100.00;99559.88;4994061;28;20438;-77
2023/12/12 07:06:27;;;;;;;11.52;5.00;;;;;;;7.64;100.00;99558.91;4995488;28;20022;-78
2023/12/12 07:09:14;;;;;;;7.97;5.03;;;;;;;7.64;100.00;99564.56;5001201;28;20023;-77
2023/12/12 07:11:41;;;;;;;11.07;4.53;;;;;;;7.62;100.00;99550.09;4978812;28;20027;-76
2023/12/12 07:14:08;;;;;;;6.30;3.40;;;;;;;7.67;100.00;99567.22;4978320;28;20476;-77
2023/12/12 07:16:46;;;;;;;6.78;3.17;;;;;;;7.70;100.00;99568.31;4977820;28;20047;-76
2023/12/12 07:19:11;;;;;;;7.13;3.90;;;;;;;7.72;100.00;99574.31;4976705;28;20027;-75
2023/12/12 07:21:41;;;;;;;7.18;3.30;;;;;;;7.75;100.00;99571.25;4976782;28;20077;-76
2023/12/12 07:24:19;;;;;;;4.80;3.58;;;;;;;7.73;100.00;99575.84;4976309;28;20027;-76
2023/12/12 07:26:50;;;;;;;3.83;3.30;;;;;;;7.70;100.00;99580.47;4975139;28;20099;-76
2023/12/12 07:29:40;;;;;;;;;;;;;;;7.71;100.00;99604.78;4974382;28;20073;-77
2023/12/12 07:32:07;;;;;;;9.07;2.83;;;;;;;7.71;100.00;99616.16;4974024;28;19910;-75
2023/12/12 07:34:32;;;;;;;4.43;2.63;;;;;;;7.75;100.00;99602.53;4974596;28;20424;-74
2023/12/12 07:36:59;;;;;;;3.88;2.15;;;;;;;7.84;100.00;99610.16;4975456;28;20105;-77
2023/12/12 07:39:25;;;;;;;6.07;2.97;;;;;;;7.88;100.00;99613.59;4975135;28;20062;-74
2023/12/12 07:41:51;;;;;;;4.97;2.38;;;;;;;7.91;100.00;99613.41;4974665;28;20108;-76
2023/12/12 07:44:19;;;;;;;5.35;2.30;;;;;;;7.79;100.00;99617.34;4974650;28;20023;-76
2023/12/12 07:46:44;;;;;;;7.45;2.92;;;;;;;7.79;100.00;99625.88;4974317;28;20027;-74
2023/12/12 07:49:09;;;;;;;3.67;2.33;;;;;;;7.81;100.00;99633.91;4975081;28;20061;-75
2023/12/12 07:51:36;;;;;;;6.38;3.15;;;;;;;7.72;100.00;99631.94;4974534;28;20038;-76
2023/12/12 07:54:08;;;;;;;5.53;2.58;;;;;;;7.85;100.00;99649.50;4974748;28;20130;-74
2023/12/12 07:56:36;;;;;;;5.45;2.72;;;;;;;7.86;100.00;99653.13;4974464;28;20046;-76
2023/12/12 07:59:03;;;;;;;5.38;3.10;;;;;;;7.85;100.00;99640.97;4974675;28;20089;-75
2023/12/12 08:01:29;;;;;;;4.72;3.10;;;;;;;7.84;100.00;99644.31;4974280;28;20125;-75
2023/12/12 08:03:56;;;;;;;8.73;3.40;;;;;;;7.88;100.00;99644.88;4974380;28;20085;-75
2023/12/12 08:06:22;;;;;;;11.18;4.03;;;;;;;7.89;100.00;99655.00;4974511;28;20084;-77
2023/12/12 08:08:47;;;;;;;6.13;2.92;;;;;;;7.93;100.00;99656.38;4973317;28;20046;-76
2023/12/12 08:11:14;;;;;;;5.97;2.85;;;;;;;7.98;100.00;99650.00;4974679;28;20026;-76
2023/12/12 08:13:43;;;;;;;8.35;3.28;;;;;;;7.98;100.00;99652.81;4974418;28;20438;-76
2023/12/12 08:16:11;;;;;;;8.25;3.72;;;;;;;8.03;100.00;99645.66;4974036;28;20569;-74
2023/12/12 08:18:39;;;;;;;8.40;3.00;;;;;;;8.06;100.00;99656.06;4974813;28;20027;-75
2023/12/12 08:21:07;;;;;;;8.43;3.10;;;;;;;8.09;100.00;99660.00;4974384;28;20058;-75
2023/12/12 08:23:37;;;;;;;8.32;3.40;;;;;;;8.19;100.00;99652.94;4972917;28;20384;-77
2023/12/12 08:26:05;;;;;;;5.90;2.83;;;;;;;8.25;100.00;99654.63;4973142;28;20038;-76
2023/12/12 08:28:31;;;;;;;5.72;2.67;;;;;;;8.26;100.00;99661.84;4974197;28;20037;-76
2023/12/12 08:30:57;;;;;;;5.90;3.08;;;;;;;8.30;100.00;99650.28;4974505;28;20081;-76
2023/12/12 08:33:23;;;;;;;5.28;2.80;;;;;;;8.27;100.00;99654.88;4973053;28;20031;-75
2023/12/12 08:35:49;;;;;;;7.93;3.30;;;;;;;8.34;100.00;99653.72;4973295;28;20054;-76
2023/12/12 08:38:17;;;;;;;8.73;3.22;;;;;;;8.34;100.00;99656.56;4957040;28;20087;-75
2023/12/12 08:40:43;;;;;;;4.55;3.05;;;;;;;8.38;100.00;99651.44;4973063;28;20408;-76
2023/12/12 08:43:12;;;;;;;3.92;2.67;;;;;;;8.49;100.00;99648.78;4973978;28;20495;-75
2023/12/12 08:45:38;;;;;;;5.32;2.75;;;;;;;8.51;100.00;99656.81;4974115;28;20027;-76
2023/12/12 08:48:04;;;;;;;5.82;3.15;;;;;;;8.53;100.00;99657.09;4974246;28;20037;-76
2023/12/12 08:50:30;;;;;;;9.18;2.70;;;;;;;8.58;100.00;99664.94;4974267;28;20027;-75
2023/12/12 08:52:57;;;;;;;6.93;3.03;;;;;;;8.64;100.00;99651.56;4974759;28;20053;-78
2023/12/12 08:55:24;;;;;;;6.88;2.97;;;;;;;8.67;100.00;99659.13;4992630;28;20035;-77
2023/12/12 08:57:51;;;;;;;7.57;2.90;;;;;;;8.72;100.00;99662.06;4977819;28;20030;-75
2023/12/12 09:00:19;;;;;;;3.30;2.50;;;;;;;8.76;100.00;99654.06;4977932;28;20031;-75
2023/12/12 09:02:46;;;;;;;4.60;2.33;;;;;;;8.81;100.00;99661.13;4977649;28;20357;-76
2023/12/12 09:05:13;;;;;;;4.88;2.85;;;;;;;8.82;100.00;99646.41;4977442;28;20031;-76
2023/12/12 09:07:39;;;;;;;6.72;3.25;;;;;;;8.80;100.00;99656.75;4977462;28;20435;-76
2023/12/12 09:10:06;;;;;;;4.57;3.78;;;;;;;8.75;100.00;99648.91;4976212;28;20034;-76
2023/12/12 09:12:34;;;;;;;4.47;2.65;;;;;;;8.79;100.00;99653.09;4976107;28;20034;-76
2023/12/12 09:15:01;;;;;;;5.93;2.60;;;;;;;8.81;100.00;99652.59;4975977;28;20043;-76
2023/12/12 09:17:27;;;;;;;8.10;3.28;;;;;;;8.85;100.00;99650.34;4978028;28;20035;-79
2023/12/12 09:19:53;;;;;;;7.07;3.42;;;;;;;8.91;100.00;99642.63;4978083;28;20138;-77
2023/12/12 09:22:19;;;;;;;7.25;3.70;;;;;;;9.00;100.00;99656.72;4977865;28;20039;-75
2023/12/12 09:24:45;;;;;;;6.50;4.63;;;;;;;9.03;100.00;99652.91;4976291;28;20034;-77
2023/12/12 09:27:14;;;;;;;6.60;3.78;;;;;;;9.14;100.00;99655.13;4977968;28;20117;-77
2023/12/12 09:29:41;;;;;;;9.10;4.10;;;;;;;9.18;100.00;99659.31;4976097;28;20121;-76
2023/12/12 09:32:07;;;;;;;9.25;3.80;;;;;;;9.27;100.00;99658.38;4975864;28;20398;-77
2023/12/12 09:34:33;;;;;;;8.70;3.45;;;;;;;9.32;100.00;99654.03;4976198;28;20169;-76
2023/12/12 09:36:59;;;;;;;7.32;3.10;;;;;;;9.42;100.00;99646.88;4976210;28;20042;-77
2023/12/12 09:39:25;;;;;;;5.53;2.85;;;;;;;9.53;100.00;99650.66;4977029;28;20380;-75
2023/12/12 09:41:52;;;;;;;7.65;2.85;;;;;;;9.63;100.00;99651.28;4977197;28;20026;-77
2023/12/12 09:44:20;;;;;;;7.30;3.15;;;;;;;9.70;100.00;99639.41;4976956;28;20031;-75
2023/12/12 09:46:48;;;;;;;8.20;3.35;;;;;;;9.82;100.00;99641.13;4977149;28;20452;-78
2023/12/12 09:49:22;;;;;;;5.07;2.80;;;;;;;9.85;100.00;99648.66;4959600;28;20403;-74
2023/12/12 09:51:52;;;;;;;6.07;3.10;;;;;;;9.83;100.00;99645.56;4975559;28;20035;-75
2023/12/12 09:54:26;;;;;;;8.68;2.95;;;;;;;9.81;100.00;99641.63;4976980;28;20440;-76
2023/12/12 09:56:52;;;;;;;5.13;3.53;;;;;;;9.85;100.00;99639.31;4985291;28;20041;-77
2023/12/12 09:59:18;;;;;;;3.88;2.40;;;;;;;9.90;100.00;99645.09;4995086;28;20038;-77
2023/12/12 10:01:47;;;;;;;4.70;2.58;;;;;;;9.87;100.00;99648.16;4996201;28;20109;-75
2023/12/12 10:04:13;;;;;;;8.65;2.90;;;;;;;9.85;100.00;99634.41;4994706;28;20464;-76
2023/12/12 10:06:42;;;;;;;3.17;2.20;;;;;;;9.91;100.00;99637.31;4996056;28;20030;-76
2023/12/12 10:09:11;;;;;;;3.20;2.22;;;;;;;9.98;100.00;99640.50;4994987;28;20034;-75
2023/12/12 10:11:39;;;;;;;7.45;2.25;;;;;;;10.08;100.00;99632.53;4995994;28;20026;-75
2023/12/12 10:14:06;;;;;;;5.75;2.33;;;;;;;10.15;100.00;99637.78;4996061;28;20030;-75
2023/12/12 10:16:34;;;;;;;5.45;2.78;;;;;;;10.23;100.00;99632.41;4993988;28;20138;-76
2023/12/12 10:19:01;;;;;;;6.63;2.85;;;;;;;10.29;100.00;99630.34;4995857;28;20038;-75
2023/12/12 10:21:35;;;;;;;6.82;2.30;;;;;;;10.26;100.00;99634.22;4994533;28;20042;-76
2023/12/12 10:24:03;;;;;;;6.13;2.22;;;;;;;10.35;100.00;99637.69;4995598;28;20038;-75
2023/12/12 10:26:32;;;;;;;6.43;2.28;;;;;;;10.40;100.00;99631.22;4995673;28;20030;-76
2023/12/12 10:29:00;;;;;;;2.47;1.95;;;;;;;10.37;100.00;99628.63;4995788;28;20034;-75
2023/12/12 10:31:26;;;;;;;4.80;1.92;;;;;;;10.37;100.00;99623.69;4994332;28;20077;-75
2023/12/12 10:33:53;;;;;;;5.32;1.95;;;;;;;10.41;100.00;99620.59;4995825;28;20026;-76
2023/12/12 10:36:21;;;;;;;5.35;1.88;;;;;;;10.35;100.00;99628.31;4994358;28;20035;-75
2023/12/12 10:38:46;;;;;;;5.90;1.88;;;;;;;10.19;100.00;99634.69;4995613;28;20031;-76
2023/12/12 10:41:17;;;;;;;5.10;1.90;;;;;;;10.30;100.00;99638.41;4994073;28;20052;-77
2023/12/12 10:43:45;;;;;;;2.95;1.75;;;;;;;10.40;100.00;99634.09;4995131;28;20054;-75
2023/12/12 10:46:18;;;;;;;5.60;2.05;;;;;;;10.46;100.00;99649.19;4993852;28;20038;-76
2023/12/12 10:48:45;;;;;;;5.35;2.10;;;;;;;10.54;100.00;99644.56;4994662;28;20034;-76
2023/12/12 10:51:11;;;;;;;7.40;2.95;;;;;;;10.62;100.00;99646.97;4995298;28;20030;-75
2023/12/12 10:53:37;;;;;;;4.90;2.58;;;;;;;10.68;100.00;99654.25;4995283;28;20041;-76
2023/12/12 10:56:04;;;;;;;4.03;1.83;;;;;;;10.68;100.00;99644.94;4993907;28;20121;-76
2023/12/12 10:58:35;;;;;;;5.55;2.38;;;;;;;10.62;100.00;99649.81;4994903;28;20034;-76
2023/12/12 11:01:02;;;;;;;4.63;1.90;;;;;;;10.59;100.00;99648.75;4995294;28;20057;-76
2023/12/12 11:03:31;;;;;;;3.97;1.85;;;;;;;10.61;100.00;99653.97;4995230;28;20041;-76
2023/12/12 11:05:58;;;;;;;3.55;1.98;;;;;;;10.54;100.00;99655.22;4994126;28;20030;-76
2023/12/12 11:08:24;;;;;;;5.32;1.77;;;;;;;10.52;100.00;99657.81;4993678;28;20499;-75
2023/12/12 11:10:55;;;;;;;6.50;1.85;;;;;;;10.57;100.00;99659.13;4977356;28;20427;-75
2023/12/12 11:13:28;;;;;;;7.00;1.80;;;;;;;10.54;100.00;99647.41;4994295;28;20129;-75
2023/12/12 11:16:03;;;;;;;5.30;2.00;;;;;;;10.61;100.00;99643.31;4992852;28;20118;-76
2023/12/12 11:18:30;;;;;;;8.98;2.00;;;;;;;10.76;100.00;99638.22;4993479;28;20038;-75
2023/12/12 11:20:57;;;;;;;3.97;1.83;;;;;;;10.83;100.00;99629.16;4994808;28;20034;-75
2023/12/12 11:23:40;;;;;;;9.05;2.42;;;;;;;10.87;100.00;99635.44;4994495;28;20150;-77
2023/12/12 11:26:08;;;;;;;5.65;2.30;;;;;;;10.86;100.00;99645.31;4994822;28;20030;-74
2023/12/12 11:28:43;;;;;;;5.32;2.15;;;;;;;10.87;100.00;99649.72;4993539;28;20045;-75
2023/12/12 11:31:08;;;;;;;3.88;1.90;;;;;;;10.79;100.00;99642.91;4994540;28;20105;-75